This is the latest recevied weather packets stored in our database for station/object KA1AL. If no packets are shown the sender has not sent any weather packets the latest 10 day(s).
| Time | Temp. | Humidity | Pressure | Rain* | Wind** | Luminosity | Snow |
|---|---|---|---|---|---|---|---|
| 1777954497 | 9.44° C | 83% | 1006.6 hPa | 0 mm | - | 0 W/m² | - |
| 1777954194 | 8.89° C | 85% | 1006.5 hPa | 0 mm | - | 0 W/m² | - |
| 1777953891 | 8.89° C | 85% | 1006.6 hPa | 0 mm | - | 0 W/m² | - |
| 1777953588 | 9.44° C | 84% | 1006.5 hPa | 0 mm | - | 0 W/m² | - |
| 1777953284 | 10° C | 80% | 1006.6 hPa | 0 mm | - | 0 W/m² | - |
| 1777952982 | 9.44° C | 83% | 1006.3 hPa | 0 mm | - | 0 W/m² | - |
| 1777952678 | 10° C | 82% | 1006.6 hPa | 0 mm | - | 0 W/m² | - |
| 1777952375 | 11.11° C | 77% | 1006.4 hPa | 0 mm | - | 0 W/m² | - |
| 1777952072 | 11.11° C | 76% | 1006.4 hPa | 0 mm | - | 0 W/m² | - |
| 1777951770 | 11.11° C | 77% | 1006.5 hPa | 0 mm | - | 0 W/m² | - |
| 1777951467 | 11.11° C | 77% | 1006.5 hPa | 0 mm | - | 0 W/m² | - |
| 1777951163 | 11.11° C | 77% | 1006.4 hPa | 0 mm | - | 0 W/m² | - |
| 1777950860 | 11.11° C | 77% | 1006.3 hPa | 0 mm | - | 0 W/m² | - |
| 1777950557 | 11.11° C | 78% | 1006.6 hPa | 0 mm | - | 0 W/m² | - |
| 1777950253 | 10.56° C | 79% | 1006.8 hPa | 0 mm | - | 0 W/m² | - |
| 1777949949 | 10° C | 82% | 1006.6 hPa | 0 mm | - | 0 W/m² | - |
| 1777949646 | 10.56° C | 80% | 1006.6 hPa | 0 mm | - | 0 W/m² | - |
| 1777949345 | 11.11° C | 78% | 1006.5 hPa | 0 mm | - | 0 W/m² | - |
| 1777949042 | 11.11° C | 77% | 1006.7 hPa | 0 mm | - | 0 W/m² | - |
| 1777948739 | 11.11° C | 78% | 1006.8 hPa | 0 mm | - | 0 W/m² | - |
| 1777948436 | 11.67° C | 77% | 1006.8 hPa | 0 mm | - | 0 W/m² | - |
| 1777948133 | 11.11° C | 77% | 1006.7 hPa | 0 mm | - | 0 W/m² | - |
| 1777947830 | 10° C | 80% | 1006.8 hPa | 0 mm | - | 0 W/m² | - |
| 1777947528 | 11.11° C | 78% | 1006.7 hPa | 0 mm | - | 0 W/m² | - |
| 1777947224 | 10° C | 82% | 1006.5 hPa | 0 mm | - | 0 W/m² | - |
* Rain latest hour (hover to see other rain measurements)
** Current wind speed in m/s (hover to see current wind gust speed)